createdAt,value
2019-04-26T00:02:27.825Z,58.70
2019-04-26T00:04:59.365Z,59.00
2019-04-26T00:07:29.280Z,58.00
2019-04-26T00:10:00.337Z,58.10
2019-04-26T00:15:25.745Z,58.30
2019-04-26T00:17:57.414Z,57.90
2019-04-26T00:20:27.123Z,58.30
2019-04-26T00:22:56.928Z,57.90
2019-04-26T00:25:26.748Z,58.70
2019-04-26T00:27:56.454Z,59.00
2019-04-26T00:30:26.269Z,58.00
2019-04-26T00:32:55.974Z,58.30
2019-04-26T00:35:25.685Z,58.30
2019-04-26T00:37:55.295Z,58.00
2019-04-26T00:40:25.113Z,58.70
2019-04-26T00:42:57.519Z,58.10
2019-04-26T00:45:27.301Z,58.10
2019-04-26T00:47:56.544Z,58.10
2019-04-26T00:50:26.305Z,58.50
2019-04-26T00:52:55.973Z,58.60
2019-04-26T00:55:25.397Z,58.90
2019-04-26T00:57:55.024Z,59.10
2019-04-26T01:00:26.100Z,59.70
2019-04-26T01:02:56.678Z,59.70
2019-04-26T01:05:26.617Z,59.80
2019-04-26T01:07:57.629Z,59.70
2019-04-26T01:10:27.374Z,59.50
2019-04-26T01:12:57.282Z,59.50
2019-04-26T01:15:27.093Z,59.40
2019-04-26T01:17:56.921Z,59.40
2019-04-26T01:20:26.759Z,59.20
2019-04-26T01:22:58.894Z,59.40
2019-04-26T01:25:34.542Z,59.60
2019-04-26T01:28:04.146Z,59.60
2019-04-26T01:30:33.754Z,59.80
2019-04-26T01:33:03.461Z,59.90
2019-04-26T01:38:21.838Z,60.10
2019-04-26T01:40:53.172Z,60.00
2019-04-26T01:43:26.383Z,59.90
2019-04-26T01:46:00.431Z,59.70
2019-04-26T01:48:47.104Z,60.00
2019-04-26T01:51:22.768Z,60.30
2019-04-26T01:53:52.852Z,60.50
2019-04-26T01:56:25.836Z,60.80
2019-04-26T01:58:55.454Z,61.10
2019-04-26T02:01:27.481Z,61.40
2019-04-26T02:03:59.661Z,61.70
2019-04-26T02:06:33.299Z,61.70
2019-04-26T02:09:00.769Z,61.90
2019-04-26T02:11:32.972Z,62.10
2019-04-26T02:14:02.934Z,61.90
2019-04-26T02:16:33.320Z,61.90
2019-04-26T02:19:02.774Z,61.90
2019-04-26T02:21:34.256Z,61.90
2019-04-26T02:24:08.313Z,62.00
2019-04-26T02:26:42.326Z,61.80
2019-04-26T02:29:15.309Z,62.10
2019-04-26T02:31:45.412Z,62.30
2019-04-26T02:34:15.145Z,62.20
2019-04-26T02:36:57.175Z,62.10
2019-04-26T02:39:18.626Z,61.50
2019-04-26T02:41:49.673Z,61.70
2019-04-26T02:44:22.105Z,62.20
2019-04-26T02:47:14.006Z,62.10
2019-04-26T02:49:45.256Z,62.00
2019-04-26T02:52:35.175Z,62.30
2019-04-26T02:55:41.812Z,62.80
2019-04-26T02:58:07.771Z,61.90
2019-04-26T03:00:38.767Z,62.00
2019-04-26T03:03:08.031Z,62.30
2019-04-26T03:05:39.933Z,62.50
2019-04-26T03:08:10.421Z,62.60
2019-04-26T03:10:43.380Z,63.00
2019-04-26T03:13:17.935Z,63.00
2019-04-26T03:15:54.884Z,63.30
2019-04-26T03:18:31.714Z,63.60
2019-04-26T03:21:04.614Z,64.00
2019-04-26T03:23:58.452Z,64.40
2019-04-26T03:26:31.335Z,64.40
2019-04-26T03:29:12.977Z,64.30
2019-04-26T03:31:54.415Z,64.60
2019-04-26T03:34:52.626Z,64.80
2019-04-26T03:37:38.306Z,64.90
2019-04-26T03:40:36.880Z,65.40
2019-04-26T03:43:13.161Z,65.50
2019-04-26T03:46:19.285Z,65.50
2019-04-26T03:49:00.709Z,65.30
2019-04-26T03:51:48.546Z,65.00
2019-04-26T03:54:20.103Z,65.90
2019-04-26T03:56:52.794Z,65.00
2019-04-26T03:59:44.083Z,64.80
2019-04-26T04:02:16.161Z,65.10
2019-04-26T04:04:50.781Z,65.10
2019-04-26T04:07:36.072Z,64.70
2019-04-26T04:10:11.407Z,64.70
2019-04-26T04:12:45.815Z,64.50
2019-04-26T04:15:18.934Z,64.60
2019-04-26T04:18:00.811Z,64.60
2019-04-26T04:20:51.798Z,64.40
2019-04-26T04:23:34.022Z,64.50
2019-04-26T04:26:04.906Z,64.20
2019-04-26T04:28:44.463Z,64.10
2019-04-26T04:31:40.339Z,63.30
2019-04-26T04:34:14.039Z,62.60
2019-04-26T04:36:50.699Z,62.40
2019-04-26T04:39:20.809Z,62.50
2019-04-26T04:42:21.255Z,62.30
2019-04-26T04:45:13.491Z,62.90
2019-04-26T04:48:05.843Z,62.90
2019-04-26T04:50:40.970Z,62.50
2019-04-26T04:53:24.002Z,62.60
2019-04-26T04:56:08.853Z,61.90
2019-04-26T04:58:56.915Z,62.60
2019-04-26T05:01:44.200Z,63.10
2019-04-26T05:04:24.576Z,62.40
2019-04-26T05:07:05.755Z,61.90
2019-04-26T05:09:55.338Z,61.40
2019-04-26T05:12:30.398Z,62.20
2019-04-26T05:15:14.002Z,60.80
2019-04-26T05:18:11.365Z,60.50
2019-04-26T05:20:51.205Z,60.30
2019-04-26T05:23:44.644Z,59.20
2019-04-26T05:26:53.613Z,58.50
2019-04-26T05:29:50.762Z,58.10
2019-04-26T05:32:48.702Z,57.40
2019-04-26T05:35:57.323Z,56.30
2019-04-26T05:39:00.452Z,55.00
2019-04-26T05:42:03.645Z,54.40
2019-04-26T05:45:09.647Z,54.20
2019-04-26T05:48:25.087Z,54.00
2019-04-26T05:51:26.543Z,53.90
2019-04-26T05:54:17.188Z,53.20
2019-04-26T05:57:03.447Z,52.70
2019-04-26T06:00:26.711Z,52.60
2019-04-26T06:03:20.687Z,52.80
2019-04-26T06:06:09.633Z,52.50
2019-04-26T06:09:08.637Z,52.10
2019-04-26T06:11:46.064Z,51.40
2019-04-26T06:14:35.823Z,50.10
2019-04-26T06:17:13.206Z,50.80
2019-04-26T06:20:22.645Z,50.50
2019-04-26T06:23:04.750Z,51.00
2019-04-26T06:25:39.000Z,50.70
2019-04-26T06:28:37.575Z,51.10
2019-04-26T06:31:13.127Z,49.20
2019-04-26T06:33:51.879Z,48.80
2019-04-26T06:36:23.615Z,49.00
2019-04-26T06:39:15.404Z,49.20
2019-04-26T06:42:09.276Z,50.00
2019-04-26T06:45:28.243Z,50.30
2019-04-26T06:48:28.157Z,47.10
2019-04-26T06:51:07.299Z,47.20
2019-04-26T06:53:52.162Z,47.60
2019-04-26T06:56:42.815Z,45.90
2019-04-26T06:59:43.202Z,46.70
2019-04-26T07:02:34.005Z,47.10
2019-04-26T07:05:21.934Z,48.30
2019-04-26T07:07:54.510Z,48.60
2019-04-26T07:10:45.319Z,47.60
2019-04-26T07:13:40.723Z,47.20
2019-04-26T07:16:37.980Z,45.00
2019-04-26T07:19:29.198Z,44.40
2019-04-26T07:22:34.851Z,45.30
2019-04-26T07:25:11.066Z,45.90
2019-04-26T07:28:03.233Z,45.20
2019-04-26T07:30:47.706Z,44.00
2019-04-26T07:33:32.769Z,43.50
2019-04-26T07:36:26.544Z,42.20
2019-04-26T07:39:30.974Z,43.30
2019-04-26T07:42:09.445Z,42.80
2019-04-26T07:44:49.946Z,43.60
2019-04-26T07:47:56.222Z,42.20
2019-04-26T07:50:48.965Z,41.90
2019-04-26T07:53:41.410Z,42.80
2019-04-26T07:56:14.268Z,43.60
2019-04-26T07:59:16.268Z,43.00
2019-04-26T08:02:09.040Z,43.80
2019-04-26T08:04:48.249Z,43.60
2019-04-26T08:07:21.335Z,43.10
2019-04-26T08:09:59.774Z,42.90
2019-04-26T08:12:29.877Z,42.40
2019-04-26T08:15:39.126Z,42.10
2019-04-26T08:18:13.841Z,41.60
2019-04-26T08:20:48.380Z,41.50
2019-04-26T08:23:38.506Z,42.10
2019-04-26T08:25:58.986Z,41.50
2019-04-26T08:28:28.766Z,41.50
2019-04-26T08:30:58.575Z,41.20
2019-04-26T08:33:31.028Z,40.50
2019-04-26T08:38:41.131Z,40.20
2019-04-26T08:41:11.773Z,39.50
2019-04-26T08:43:45.533Z,39.70
2019-04-26T08:46:36.099Z,39.80
2019-04-26T08:49:06.340Z,40.10
2019-04-26T08:51:36.499Z,40.70
2019-04-26T08:54:07.492Z,40.70
2019-04-26T08:56:43.290Z,39.80
2019-04-26T08:59:26.314Z,39.80
2019-04-26T09:01:58.138Z,39.10
2019-04-26T09:04:30.446Z,38.80
2019-04-26T09:07:02.690Z,39.20
2019-04-26T09:09:35.202Z,38.50
2019-04-26T09:12:08.187Z,38.50
2019-04-26T09:14:38.014Z,39.60
2019-04-26T09:17:08.005Z,38.50
2019-04-26T09:19:37.817Z,37.10
2019-04-26T09:22:13.286Z,37.10
2019-04-26T09:24:42.162Z,36.80
2019-04-26T09:27:17.185Z,36.40
2019-04-26T09:29:49.561Z,35.70
2019-04-26T09:32:24.161Z,33.60
2019-04-26T09:34:55.542Z,33.10
2019-04-26T09:37:25.487Z,34.30
2019-04-26T09:39:56.090Z,35.00
2019-04-26T09:42:30.092Z,33.10
2019-04-26T09:45:19.566Z,34.70
2019-04-26T09:48:00.341Z,34.60
2019-04-26T09:50:40.802Z,33.40
2019-04-26T09:53:10.154Z,34.00
2019-04-26T09:55:39.486Z,32.90
2019-04-26T09:58:08.869Z,33.60
2019-04-26T10:00:38.629Z,32.80
2019-04-26T10:03:10.766Z,31.70
2019-04-26T10:05:40.599Z,32.00
2019-04-26T10:08:13.002Z,31.20
2019-04-26T10:10:41.359Z,31.80
2019-04-26T10:13:15.018Z,31.80
2019-04-26T10:15:58.070Z,31.60
2019-04-26T10:18:25.963Z,31.40
2019-04-26T10:20:55.489Z,31.40
2019-04-26T10:23:25.164Z,32.20
2019-04-26T10:25:54.871Z,32.10
2019-04-26T10:28:24.786Z,31.10
2019-04-26T10:30:54.489Z,30.90
2019-04-26T10:33:24.092Z,32.00
2019-04-26T10:35:56.675Z,32.10
2019-04-26T10:38:25.501Z,32.10
2019-04-26T10:40:54.842Z,31.80
2019-04-26T10:43:24.478Z,32.20
2019-04-26T10:45:55.036Z,31.60
2019-04-26T10:48:25.946Z,31.50
2019-04-26T10:50:55.764Z,32.00
2019-04-26T10:53:33.145Z,31.80
2019-04-26T10:56:24.177Z,31.50
2019-04-26T10:58:56.530Z,30.50
2019-04-26T11:01:26.343Z,30.70
2019-04-26T11:03:56.155Z,30.60
2019-04-26T11:06:27.887Z,31.20
2019-04-26T11:08:57.809Z,31.30
2019-04-26T11:11:27.542Z,31.40
2019-04-26T11:13:57.595Z,31.10
2019-04-26T11:16:27.680Z,31.30
2019-04-26T11:19:01.150Z,31.40
2019-04-26T11:21:29.547Z,30.90
2019-04-26T11:23:59.265Z,30.20
2019-04-26T11:26:31.035Z,30.50
2019-04-26T11:29:00.325Z,30.30
2019-04-26T11:31:30.163Z,29.30
2019-04-26T11:34:05.526Z,29.40
2019-04-26T11:36:31.086Z,29.90
2019-04-26T11:39:01.364Z,29.40
2019-04-26T11:41:33.965Z,28.70
2019-04-26T11:44:03.501Z,29.40
2019-04-26T11:46:44.232Z,29.80
2019-04-26T11:49:07.173Z,29.00
2019-04-26T11:51:37.029Z,29.40
2019-04-26T11:54:06.735Z,29.00
2019-04-26T11:56:37.509Z,28.50
2019-04-26T11:59:08.514Z,28.00
2019-04-26T12:01:40.436Z,28.30
2019-04-26T12:04:18.076Z,27.90
2019-04-26T12:06:58.850Z,28.40
2019-04-26T12:09:36.234Z,28.00
2019-04-26T12:12:09.251Z,28.10
2019-04-26T12:14:37.089Z,28.60
2019-04-26T12:17:06.361Z,29.00
2019-04-26T12:19:36.088Z,28.10
2019-04-26T12:22:08.378Z,28.00
2019-04-26T12:24:36.983Z,27.80
2019-04-26T12:27:06.346Z,28.40
2019-04-26T12:29:37.598Z,28.40
2019-04-26T12:32:07.202Z,28.30
2019-04-26T12:34:36.919Z,28.90
2019-04-26T12:37:06.625Z,28.70
2019-04-26T12:39:36.717Z,29.30
2019-04-26T12:42:08.273Z,29.50
2019-04-26T12:44:47.449Z,29.30
2019-04-26T12:47:21.340Z,28.80
2019-04-26T12:49:54.481Z,29.30
2019-04-26T12:52:22.835Z,29.30
2019-04-26T12:54:52.518Z,29.50
2019-04-26T12:57:22.329Z,29.30
2019-04-26T12:59:52.042Z,29.20
2019-04-26T13:02:21.978Z,29.30
2019-04-26T13:04:51.407Z,29.20
2019-04-26T13:07:24.198Z,29.80
2019-04-26T13:10:08.797Z,29.80
2019-04-26T13:12:51.928Z,29.30
2019-04-26T13:15:52.156Z,29.20
2019-04-26T13:18:21.758Z,29.00
2019-04-26T13:20:51.469Z,28.90
2019-04-26T13:23:21.283Z,29.00
2019-04-26T13:25:51.090Z,28.80
2019-04-26T13:28:21.856Z,29.10
2019-04-26T13:30:51.742Z,29.30
2019-04-26T13:33:23.279Z,29.00
2019-04-26T13:36:02.526Z,29.00
2019-04-26T13:38:24.146Z,29.70
2019-04-26T13:40:53.969Z,30.00
2019-04-26T13:43:26.999Z,29.30
2019-04-26T13:46:14.309Z,28.90
2019-04-26T13:48:57.496Z,29.50
2019-04-26T13:51:28.537Z,29.20
2019-04-26T13:53:58.177Z,29.40
2019-04-26T13:56:27.857Z,29.60
2019-04-26T13:58:58.292Z,29.30
2019-04-26T14:01:29.018Z,29.80
2019-04-26T14:03:58.382Z,29.60
2019-04-26T14:06:28.145Z,29.40
2019-04-26T14:09:00.774Z,29.70
2019-04-26T14:11:29.579Z,29.60
2019-04-26T14:14:00.197Z,29.10
2019-04-26T14:16:31.076Z,29.40
2019-04-26T14:19:00.722Z,29.30
2019-04-26T14:21:33.113Z,29.70
2019-04-26T14:24:23.966Z,29.40
2019-04-26T14:26:52.311Z,29.80
2019-04-26T14:29:22.153Z,30.60
2019-04-26T14:31:53.080Z,30.00
2019-04-26T14:34:22.896Z,29.90
2019-04-26T14:37:05.558Z,29.40
2019-04-26T14:39:35.126Z,29.50
2019-04-26T14:41:57.036Z,29.80
2019-04-26T14:44:27.114Z,30.00
2019-04-26T14:46:57.999Z,30.20
2019-04-26T14:49:38.466Z,30.80
2019-04-26T14:51:59.170Z,29.60
2019-04-26T14:54:28.526Z,29.90
2019-04-26T14:56:59.826Z,29.60
2019-04-26T14:59:44.430Z,29.90
2019-04-26T15:02:32.933Z,30.50
2019-04-26T15:05:09.232Z,30.70
2019-04-26T15:07:48.599Z,30.50
2019-04-26T15:10:10.981Z,30.00
2019-04-26T15:12:46.914Z,30.00
2019-04-26T15:15:12.230Z,30.20
2019-04-26T15:17:42.264Z,30.50
2019-04-26T15:20:12.656Z,30.00
2019-04-26T15:22:48.487Z,29.70
2019-04-26T15:25:14.031Z,29.80
2019-04-26T15:27:44.186Z,30.20
2019-04-26T15:30:13.633Z,30.60
2019-04-26T15:32:42.994Z,30.40
2019-04-26T15:35:16.149Z,30.70
2019-04-26T15:37:45.046Z,30.80
2019-04-26T15:40:22.592Z,30.60
2019-04-26T15:43:02.996Z,30.80
2019-04-26T15:45:44.697Z,30.90
2019-04-26T15:48:28.117Z,30.60
2019-04-26T15:50:58.332Z,30.80
2019-04-26T15:53:28.153Z,30.80
2019-04-26T15:55:57.529Z,30.40
2019-04-26T15:58:27.161Z,30.40
2019-04-26T16:00:56.613Z,31.10
2019-04-26T16:03:26.282Z,31.00
2019-04-26T16:05:59.142Z,31.00
2019-04-26T16:08:27.073Z,30.90
2019-04-26T16:10:56.838Z,30.70
2019-04-26T16:13:26.247Z,30.50
2019-04-26T16:15:55.949Z,31.00
2019-04-26T16:18:25.561Z,31.10
2019-04-26T16:20:55.266Z,31.20
2019-04-26T16:23:38.028Z,31.40
2019-04-26T16:25:55.960Z,31.10
2019-04-26T16:28:31.018Z,31.20
2019-04-26T16:31:20.445Z,31.40
2019-04-26T16:33:52.092Z,31.80
2019-04-26T16:36:23.768Z,32.50
2019-04-26T16:38:56.436Z,32.70
2019-04-26T16:41:27.226Z,32.20
2019-04-26T16:43:55.942Z,32.20
2019-04-26T16:46:25.321Z,32.80
2019-04-26T16:49:01.782Z,32.90
2019-04-26T16:51:26.714Z,33.00
2019-04-26T16:54:06.541Z,32.90
2019-04-26T16:56:28.353Z,33.20
2019-04-26T16:58:58.398Z,33.00
2019-04-26T17:01:28.105Z,33.50
2019-04-26T17:03:57.925Z,33.80
2019-04-26T17:06:27.742Z,34.90
2019-04-26T17:09:01.501Z,44.40
2019-04-26T17:11:30.278Z,45.20
2019-04-26T17:14:04.868Z,45.50
2019-04-26T17:16:34.822Z,38.60
2019-04-26T17:19:03.666Z,41.50
2019-04-26T17:21:34.797Z,44.90
2019-04-26T17:24:09.539Z,47.00
2019-04-26T17:26:42.857Z,45.70
2019-04-26T17:29:15.093Z,43.90
2019-04-26T17:31:45.806Z,41.90
2019-04-26T17:34:15.294Z,42.20
2019-04-26T17:36:46.380Z,40.50
2019-04-26T17:39:18.277Z,40.90
2019-04-26T17:41:52.497Z,40.40
2019-04-26T17:44:26.027Z,41.40
2019-04-26T17:46:56.169Z,42.40
2019-04-26T17:49:27.137Z,43.00
2019-04-26T17:51:57.989Z,38.10
2019-04-26T17:54:41.430Z,45.40
2019-04-26T17:56:57.419Z,45.00
2019-04-26T17:59:33.519Z,49.20
2019-04-26T18:02:01.146Z,48.10
2019-04-26T18:04:36.491Z,46.50
2019-04-26T18:07:10.922Z,47.00
2019-04-26T18:09:44.671Z,45.00
2019-04-26T18:12:05.464Z,44.70
2019-04-26T18:14:35.173Z,42.80
2019-04-26T18:17:09.266Z,43.60
2019-04-26T18:19:46.686Z,42.50
2019-04-26T18:22:28.428Z,43.60
2019-04-26T18:24:58.599Z,43.40
2019-04-26T18:27:29.891Z,41.00
2019-04-26T18:30:06.614Z,41.10
2019-04-26T18:32:33.925Z,40.00
2019-04-26T18:35:01.916Z,41.80
2019-04-26T18:37:31.226Z,42.00
2019-04-26T18:40:02.046Z,41.80
2019-04-26T18:42:37.466Z,41.30
2019-04-26T18:45:08.560Z,40.60
2019-04-26T18:47:40.481Z,41.20
2019-04-26T18:50:10.466Z,41.00
2019-04-26T18:52:59.846Z,40.40
2019-04-26T18:55:34.388Z,39.40
2019-04-26T18:58:05.493Z,40.40
2019-04-26T19:00:37.134Z,41.10
2019-04-26T19:03:07.538Z,42.30
2019-04-26T19:05:37.657Z,41.90
2019-04-26T19:08:09.887Z,41.70
2019-04-26T19:10:39.361Z,41.40
2019-04-26T19:13:22.188Z,41.80
2019-04-26T19:16:04.113Z,42.20
2019-04-26T19:18:45.188Z,41.90
2019-04-26T19:21:23.054Z,41.80
2019-04-26T19:24:04.877Z,39.00
2019-04-26T19:26:32.453Z,40.10
2019-04-26T19:28:56.238Z,40.30
2019-04-26T19:31:27.326Z,39.90
2019-04-26T19:33:57.017Z,41.50
2019-04-26T19:36:29.339Z,42.80
2019-04-26T19:38:59.409Z,45.20
2019-04-26T19:41:29.221Z,43.50
2019-04-26T19:43:59.033Z,45.80
2019-04-26T19:46:36.630Z,45.00
2019-04-26T19:49:21.534Z,46.30
2019-04-26T19:52:09.127Z,42.10
2019-04-26T19:54:41.797Z,48.50
2019-04-26T19:57:17.240Z,38.60
2019-04-26T19:59:47.193Z,38.00
2019-04-26T20:02:17.491Z,38.70
2019-04-26T20:04:47.492Z,37.50
2019-04-26T20:07:17.728Z,38.00
2019-04-26T20:09:47.443Z,37.80
2019-04-26T20:12:18.025Z,38.10
2019-04-26T20:14:51.206Z,39.40
2019-04-26T20:17:21.815Z,38.80
2019-04-26T20:19:54.467Z,40.40
2019-04-26T20:22:28.532Z,41.50
2019-04-26T20:24:57.663Z,42.90
2019-04-26T20:27:29.416Z,43.70
2019-04-26T20:29:59.541Z,45.20
2019-04-26T20:32:32.523Z,47.10
2019-04-26T20:35:07.199Z,47.50
2019-04-26T20:37:37.520Z,48.00
2019-04-26T20:40:20.274Z,49.00
2019-04-26T20:42:42.250Z,50.10
2019-04-26T20:45:16.583Z,51.30
2019-04-26T20:47:46.838Z,50.50
2019-04-26T20:50:14.857Z,50.30
2019-04-26T20:52:45.547Z,49.70
2019-04-26T20:55:15.394Z,50.90
2019-04-26T20:57:45.103Z,51.50
2019-04-26T21:00:16.470Z,51.40
2019-04-26T21:02:46.266Z,51.90
2019-04-26T21:05:16.073Z,52.60
2019-04-26T21:07:49.114Z,51.40
2019-04-26T21:10:21.848Z,51.00
2019-04-26T21:12:52.279Z,51.10
2019-04-26T21:15:20.634Z,51.10
2019-04-26T21:17:51.874Z,50.30
2019-04-26T21:20:21.639Z,50.90
2019-04-26T21:22:52.500Z,50.40
2019-04-26T21:25:35.432Z,50.30
2019-04-26T21:28:08.660Z,51.10
2019-04-26T21:30:41.694Z,50.60
2019-04-26T21:33:13.206Z,50.30
2019-04-26T21:35:50.282Z,50.50
2019-04-26T21:38:29.719Z,50.70
2019-04-26T21:41:14.115Z,51.00
2019-04-26T21:43:43.862Z,51.40
2019-04-26T21:46:18.500Z,51.70
2019-04-26T21:48:45.156Z,51.00
2019-04-26T21:51:16.218Z,50.50
2019-04-26T21:53:46.111Z,51.70
2019-04-26T21:56:15.921Z,51.30
2019-04-26T21:58:46.079Z,51.90
2019-04-26T22:01:19.073Z,52.80
2019-04-26T22:03:54.282Z,53.30
2019-04-26T22:06:19.924Z,53.20
2019-04-26T22:08:57.274Z,53.40
2019-04-26T22:11:23.939Z,53.40
2019-04-26T22:13:55.257Z,53.20
2019-04-26T22:16:34.261Z,53.10
2019-04-26T22:19:07.897Z,53.10
2019-04-26T22:21:48.558Z,52.90
2019-04-26T22:24:19.577Z,52.70
2019-04-26T22:26:49.219Z,52.80
2019-04-26T22:29:18.912Z,53.00
2019-04-26T22:31:48.726Z,53.00
2019-04-26T22:34:18.438Z,53.30
2019-04-26T22:36:47.784Z,53.80
2019-04-26T22:39:18.465Z,54.00
2019-04-26T22:41:47.751Z,54.40
2019-04-26T22:44:32.282Z,55.00
2019-04-26T22:47:07.282Z,55.70
2019-04-26T22:49:41.625Z,56.00
2019-04-26T22:52:11.162Z,56.30
2019-04-26T22:54:44.745Z,57.00
2019-04-26T22:57:13.138Z,57.10
2019-04-26T22:59:43.241Z,59.90
2019-04-26T23:02:18.273Z,64.30
2019-04-26T23:04:45.214Z,66.30
2019-04-26T23:07:18.493Z,68.20
2019-04-26T23:09:51.934Z,69.40
2019-04-26T23:12:25.336Z,71.10
2019-04-26T23:14:58.336Z,72.50
2019-04-26T23:17:31.361Z,75.00
2019-04-26T23:20:13.096Z,76.30
2019-04-26T23:22:42.933Z,75.40
2019-04-26T23:25:13.633Z,75.70
2019-04-26T23:27:43.640Z,77.00
2019-04-26T23:30:14.934Z,76.40
2019-04-26T23:32:48.461Z,74.60
2019-04-26T23:35:15.996Z,73.60
2019-04-26T23:37:45.811Z,72.60
2019-04-26T23:40:15.117Z,72.30
2019-04-26T23:42:47.515Z,73.30
2019-04-26T23:45:15.904Z,72.90
2019-04-26T23:47:45.578Z,72.90
2019-04-26T23:50:15.277Z,73.60
2019-04-26T23:52:49.179Z,74.40
2019-04-26T23:55:16.221Z,75.90
2019-04-26T23:57:45.639Z,76.60
